Kealia, Hawaii
Current Conditions -  °F | °C
As of 6:53 PM on Saturday 22 Nov 2014 (Local Time) from PHLI Reporting Station
Overcast Overcast  
Wind Chill: 75°   Ceiling: 3400
Heat Index: 75°   Visibility: 10mi
Dew Point: 67°   Wind: 0mph
Humidity: 76%   Direction: NA
Pressure: 30.03"   Gusts: NA
Location:  22.09°N, 159.44°W
Report Text: PHLI 230453Z 00000KT 10SM FEW027 OVC034 24/19 A3003 RMK AO2 SLP167 T02390194 $
Loading
Personal Weather Stations






























Interactive Weather Map New forecast layout! Learn more

10-Day Weather Forecast

Advertisements
Track Severe Weather on mobile